Wetterdaten: aktuell Mittwoch, 06.05.2026 11:05
Datum Zeit Arbeit-Z. Temp. A. Bod.+5cm Temp. A. min Temp. A. max Bl.Temp +1m BTemp -5cm BTemp -10cm BTemp -20cm BTemp -50cm Feuchte I. Feuchte A. BlattFeu +1m BFeucht -5cm BFeucht-10cm BFeucht-20cm BFeucht-50cm Luftdruck Regen Wind Richtung Richtung Sonnenschein ET UV Solar Taupunkt Windchill Windböen Empfang
06.05.2026 11:05 22,8 °C 17,0 °C 16,1 °C 17,0 °C 17,2 °C 14,4 °C 14,4 °C 14,4 °C 14,4 °C 14,4 °C 48 % 76 % 0 lf 200 cb 200 cb 140 cb 88 cb 1003,6 hPa 0,0 l/m² 3,6 km/h (1 Bft) NW 318 ° 60 min 0,254 mm 2,9 UV-I 155 W/m² 12,7 °C 17,0 °C 9,7 km/h (2 Bft) 94,55 %
06.05.2026 10:05 22,8 °C 17,5 °C 16,7 °C 17,1 °C 17,5 °C 13,9 °C 13,9 °C 14,4 °C 14,4 °C 14,4 °C 48 % 76 % 0 lf 200 cb 200 cb 140 cb 88 cb 1003,4 hPa 0,0 l/m² 3,2 km/h (1 Bft) S-SO 161 ° 60 min 0,203 mm 2,3 UV-I 698 W/m² 13,2 °C 17,5 °C 6,4 km/h (2 Bft) 97,00 %
06.05.2026 09:05 22,8 °C 15,8 °C 13,9 °C 15,8 °C 15,9 °C 13,3 °C 13,3 °C 14,4 °C 15,0 °C 14,4 °C 48 % 81 % 0 lf 200 cb 200 cb 142 cb 88 cb 1003,0 hPa 0,0 l/m² 1,1 km/h (1 Bft) N-NO 19 ° 60 min 0,127 mm 1,1 UV-I 308 W/m² 12,5 °C 15,8 °C 4,8 km/h (1 Bft) 95,00 %
06.05.2026 08:05 22,8 °C 13,1 °C 11,7 °C 12,8 °C 13,1 °C 13,3 °C 13,3 °C 14,4 °C 15,0 °C 14,4 °C 49 % 94 % 15 lf 200 cb 200 cb 142 cb 88 cb 1003,5 hPa 0,0 l/m² 0,3 km/h (0 Bft) SO 141 ° 15 min 0,051 mm 0,5 UV-I 213 W/m² 12,2 °C 13,1 °C 1,6 km/h (1 Bft) 98,17 %
06.05.2026 07:05 22,7 °C 10,6 °C 9,4 °C 10,5 °C 10,6 °C 13,3 °C 13,3 °C 15,0 °C 15,0 °C 14,4 °C 48 % 95 % 15 lf 200 cb 200 cb 143 cb 88 cb 1003,8 hPa 0,0 l/m² 0,0 km/h (0 Bft) S-SO 155 ° 0 min 0,000 mm 0,0 UV-I 77 W/m² 9,8 °C 10,6 °C 0,0 km/h (0 Bft) 92,52 %
06.05.2026 06:05 22,8 °C 10,8 °C 9,4 °C 10,8 °C 10,9 °C 13,9 °C 13,9 °C 15,0 °C 15,0 °C 14,4 °C 48 % 95 % 15 lf 200 cb 200 cb 143 cb 88 cb 1003,8 hPa 0,0 l/m² 0,3 km/h (0 Bft) S 182 ° 0 min 0,000 mm 0,0 UV-I 5 W/m² 10,0 °C 10,8 °C 1,6 km/h (1 Bft) 99,18 %
06.05.2026 05:05 22,8 °C 11,6 °C 10,0 °C 11,6 °C 11,7 °C 13,9 °C 13,9 °C 15,0 °C 15,0 °C 14,4 °C 48 % 94 % 15 lf 200 cb 200 cb 144 cb 87 cb 1003,9 hPa 0,0 l/m² 0,1 km/h (0 Bft) S 182 ° 0 min 0,000 mm 0,0 UV-I 0 W/m² 10,7 °C 11,6 °C 1,6 km/h (1 Bft) 94,59 %
06.05.2026 04:05 22,9 °C 12,6 °C 11,1 °C 12,5 °C 12,6 °C 13,9 °C 13,9 °C 15,0 °C 15,0 °C 14,4 °C 48 % 94 % 15 lf 200 cb 200 cb 144 cb 87 cb 1004,5 hPa 0,0 l/m² 0,1 km/h (0 Bft) S-SW 198 ° 0 min 0,000 mm 0,0 UV-I 0 W/m² 11,7 °C 12,6 °C 1,6 km/h (1 Bft) 95,38 %
06.05.2026 03:05 22,9 °C 12,0 °C 11,1 °C 12,0 °C 12,0 °C 14,4 °C 14,4 °C 15,0 °C 15,0 °C 14,4 °C 49 % 94 % 15 lf 200 cb 200 cb 146 cb 87 cb 1004,5 hPa 0,0 l/m² 0,9 km/h (0 Bft) S 190 ° 0 min 0,000 mm 0,0 UV-I 0 W/m² 11,1 °C 12,0 °C 3,2 km/h (1 Bft) 96,72 %
06.05.2026 02:05 22,9 °C 12,7 °C 11,7 °C 12,7 °C 12,7 °C 14,4 °C 14,4 °C 15,6 °C 15,0 °C 14,4 °C 49 % 94 % 15 lf 200 cb 200 cb 147 cb 87 cb 1004,9 hPa 0,0 l/m² 0,4 km/h (0 Bft) SW 220 ° 0 min 0,000 mm 0,0 UV-I 0 W/m² 11,8 °C 12,7 °C 1,6 km/h (1 Bft) 93,22 %
06.05.2026 01:05 22,9 °C 12,8 °C 11,7 °C 12,8 °C 12,8 °C 15,0 °C 15,0 °C 15,6 °C 15,0 °C 14,4 °C 49 % 94 % 15 lf 200 cb 200 cb 149 cb 87 cb 1005,4 hPa 0,0 l/m² 2,4 km/h (1 Bft) SO 132 ° 0 min 0,000 mm 0,0 UV-I 0 W/m² 11,9 °C 12,8 °C 6,4 km/h (2 Bft) 98,33 %
06.05.2026 00:05 23,0 °C 13,3 °C 11,7 °C 13,3 °C 13,3 °C 15,0 °C 15,0 °C 15,6 °C 15,0 °C 14,4 °C 50 % 93 % 15 lf 200 cb 200 cb 150 cb 87 cb 1005,2 hPa 0,0 l/m² 1,9 km/h (1 Bft) S-SO 148 ° 0 min 0,000 mm 0,0 UV-I 0 W/m² 12,2 °C 13,3 °C 4,8 km/h (1 Bft) 93,52 %
05.05.2026 23:05 23,0 °C 13,7 °C 12,2 °C 13,6 °C 13,7 °C 15,0 °C 15,0 °C 15,6 °C 15,0 °C 14,4 °C 50 % 94 % 15 lf 200 cb 200 cb 153 cb 87 cb 1005,3 hPa 0,0 l/m² 2,6 km/h (1 Bft) S 174 ° 0 min 0,000 mm 0,0 UV-I 0 W/m² 12,8 °C 13,7 °C 6,4 km/h (2 Bft) 98,35 %
05.05.2026 22:05 23,0 °C 14,1 °C 12,8 °C 14,1 °C 14,1 °C 15,6 °C 15,6 °C 15,6 °C 15,0 °C 14,4 °C 50 % 94 % 15 lf 200 cb 200 cb 156 cb 87 cb 1005,0 hPa 0,2 l/m² 1,4 km/h (1 Bft) SW 218 ° 0 min 0,000 mm 0,0 UV-I 0 W/m² 13,1 °C 14,1 °C 4,8 km/h (1 Bft) 94,35 %
05.05.2026 21:05 23,0 °C 14,7 °C 13,3 °C 14,7 °C 14,8 °C 15,6 °C 15,6 °C 15,6 °C 15,0 °C 14,4 °C 50 % 93 % 15 lf 200 cb 200 cb 158 cb 87 cb 1004,8 hPa 1,6 l/m² 1,2 km/h (1 Bft) SW 219 ° 0 min 0,001 mm 0,0 UV-I 0 W/m² 13,6 °C 14,7 °C 3,2 km/h (1 Bft) 96,36 %
05.05.2026 20:05 23,1 °C 15,4 °C 13,9 °C 15,4 °C 15,5 °C 16,1 °C 16,1 °C 15,6 °C 15,0 °C 14,4 °C 50 % 90 % 15 lf 200 cb 200 cb 171 cb 90 cb 1004,8 hPa 4,8 l/m² 2,2 km/h (1 Bft) NW 306 ° 0 min 0,025 mm 0,0 UV-I 0 W/m² 13,8 °C 15,4 °C 6,4 km/h (2 Bft) 97,48 %
05.05.2026 19:05 23,2 °C 17,3 °C 15,6 °C 17,3 °C 17,5 °C 16,1 °C 16,1 °C 15,6 °C 15,0 °C 14,4 °C 49 % 83 % 15 lf 200 cb 200 cb 171 cb 90 cb 1004,1 hPa 0,2 l/m² 0,2 km/h (0 Bft) SW 232 ° 0 min 0,050 mm 0,0 UV-I 26 W/m² 14,4 °C 17,3 °C 1,6 km/h (1 Bft) 95,61 %
05.05.2026 18:05 23,2 °C 18,6 °C 18,9 °C 18,6 °C 19,2 °C 16,1 °C 16,1 °C 15,6 °C 15,0 °C 14,4 °C 49 % 77 % 0 lf 200 cb 200 cb 171 cb 90 cb 1004,1 hPa 0,0 l/m² 1,9 km/h (1 Bft) N-NW 329 ° 60 min 0,280 mm 0,7 UV-I 190 W/m² 14,5 °C 18,6 °C 4,8 km/h (1 Bft) 95,12 %
05.05.2026 17:05 22,7 °C 18,0 °C 18,3 °C 17,8 °C 18,0 °C 16,1 °C 16,1 °C 15,6 °C 15,0 °C 14,4 °C 51 % 79 % 13 lf 200 cb 200 cb 171 cb 89 cb 1004,5 hPa 0,0 l/m² 1,9 km/h (1 Bft) W-NW 298 ° 60 min 0,152 mm 1,3 UV-I 316 W/m² 14,3 °C 18,0 °C 4,8 km/h (1 Bft) 96,58 %
05.05.2026 16:05 22,5 °C 16,1 °C 15,0 °C 16,1 °C 16,3 °C 16,1 °C 16,1 °C 15,6 °C 15,0 °C 14,4 °C 51 % 86 % 15 lf 200 cb 200 cb 171 cb 89 cb 1005,1 hPa 0,2 l/m² 0,3 km/h (0 Bft) SW 228 ° 45 min 0,102 mm 0,8 UV-I 167 W/m² 13,8 °C 16,1 °C 3,2 km/h (1 Bft) 88,03 %
05.05.2026 15:05 22,4 °C 16,0 °C 14,4 °C 15,9 °C 16,0 °C 16,1 °C 16,1 °C 15,6 °C 15,0 °C 14,4 °C 52 % 86 % 15 lf 200 cb 200 cb 171 cb 89 cb 1005,8 hPa 0,8 l/m² 1,2 km/h (1 Bft) S 169 ° 30 min 0,076 mm 0,9 UV-I 162 W/m² 13,7 °C 16,0 °C 4,8 km/h (1 Bft) 98,35 %
05.05.2026 14:05 22,1 °C 16,7 °C 15,6 °C 16,7 °C 16,9 °C 16,1 °C 16,1 °C 15,0 °C 15,0 °C 14,4 °C 50 % 80 % 15 lf 200 cb 200 cb 171 cb 89 cb 1006,0 hPa 0,2 l/m² 2,1 km/h (1 Bft) SW 232 ° 10 min 0,076 mm 0,5 UV-I 81 W/m² 13,2 °C 16,7 °C 6,4 km/h (2 Bft) 93,50 %
05.05.2026 13:05 21,8 °C 17,8 °C 17,2 °C 17,8 °C 18,1 °C 16,1 °C 16,1 °C 15,0 °C 15,0 °C 14,4 °C 49 % 72 % 0 lf 200 cb 200 cb 171 cb 89 cb 1005,9 hPa 0,0 l/m² 3,3 km/h (1 Bft) W-SW 250 ° 55 min 0,229 mm 1,0 UV-I 139 W/m² 12,7 °C 17,8 °C 8,0 km/h (2 Bft) 95,00 %
05.05.2026 12:05 22,6 °C 19,0 °C 20,0 °C 18,9 °C 19,1 °C 15,6 °C 15,6 °C 15,0 °C 15,0 °C 14,4 °C 48 % 68 % 0 lf 200 cb 200 cb 170 cb 89 cb 1006,1 hPa 0,0 l/m² 6,3 km/h (2 Bft) N-NW 346 ° 5 min 0,203 mm 3,6 UV-I 628 W/m² 13,0 °C 19,0 °C 12,9 km/h (3 Bft) 94,87 %
05.05.2026 12:00 22,7 °C 18,9 °C 19,4 °C 18,7 °C 18,9 °C 15,6 °C 15,6 °C 15,0 °C 15,0 °C 14,4 °C 48 % 69 % 0 lf 200 cb 200 cb 170 cb 89 cb 1006,1 hPa 0,0 l/m² 4,9 km/h (1 Bft) N-NW 342 ° 0 min 0,203 mm 3,3 UV-I 557 W/m² 13,1 °C 18,9 °C 14,5 km/h (3 Bft) 95,12 %
_ Min-Zeit 12:55 06:35 05:30 06:35 06:40 07:05 07:05 07:40 09:25 12:00 12:00 12:20 12:00 12:00 12:00 09:25 20:45 09:05 - 15:45 - - - - - - 06:35 06:35 02:10 16:05
Minimum _ 21,8 °C 10,3 °C 9,4 °C 10,3 °C 10,3 °C 13,3 °C 13,3 °C 14,4 °C 14,4 °C 14,4 °C 48 % 66 % 0 lf 200 cb 200 cb 140 cb 87 cb 1003,0 hPa - 0,0 km/h (0 Bft) - - - - - - 9,5 °C 10,3 °C 0,0 km/h (0 Bft) 88,03 %
_ Max-Zeit 17:55 12:15 17:55 12:15 12:15 12:50 12:50 14:10 12:00 12:00 15:05 07:15 13:30 12:00 12:00 12:50 16:00 12:00 19:40 10:45 - - 12:00 18:00 12:10 10:30 17:55 12:15 10:45 12:15
Maximum _ 23,2 °C 19,7 °C 21,7 °C 19,4 °C 19,7 °C 16,1 °C 16,1 °C 15,6 °C 15,0 °C 14,4 °C 52 % 96 % 15 lf 200 cb 200 cb 171 cb 90 cb 1006,1 hPa 0,8 l/m² 7,2 km/h
NW (2 Bft)
- - 5 min 0,280 mm 3,9 UV-I 735 W/m² 15,0 °C 19,6 °C 17,7 km/h
N-NO (3 Bft)
100,00 %
Durchschnitt _ 22,8 °C 15,1 °C 14,2 °C 15,0 °C 15,2 °C 15,0 °C 15,0 °C 15,2 °C 15,0 °C 14,4 °C 49 % 86 % 11 lf 200 cb 200 cb 157 cb 88 cb 1004,7 hPa #8,0 l/m² 1,9 km/h (1 Bft) S - #3:15 h #0,635 mm 1,4 UV-I 229 W/m² 12,6 °C 15,1 °C 5,7 km/h (1 Bft) 95,79 %
copy; 2009 Dieter Kraft